createdAt,value
2022-09-26T00:01:44.751Z,15.92
2022-09-26T00:04:25.269Z,17.01
2022-09-26T00:06:56.499Z,17.47
2022-09-26T00:09:27.452Z,16.84
2022-09-26T00:11:56.023Z,16.15
2022-09-26T00:14:26.569Z,15.65
2022-09-26T00:16:55.599Z,15.26
2022-09-26T00:19:26.511Z,14.94
2022-09-26T00:21:54.816Z,14.65
2022-09-26T00:24:22.849Z,14.40
2022-09-26T00:26:50.958Z,14.47
2022-09-26T00:29:19.017Z,15.65
2022-09-26T00:31:49.021Z,16.75
2022-09-26T00:34:19.922Z,17.23
2022-09-26T00:36:49.218Z,16.61
2022-09-26T00:39:17.309Z,15.88
2022-09-26T00:41:45.648Z,15.38
2022-09-26T00:44:46.834Z,14.99
2022-09-26T00:47:40.571Z,14.59
2022-09-26T00:50:32.943Z,14.74
2022-09-26T00:53:14.926Z,16.18
2022-09-26T00:55:50.370Z,17.16
2022-09-26T00:58:25.420Z,17.52
2022-09-26T01:00:53.543Z,16.83
2022-09-26T01:03:23.669Z,16.11
2022-09-26T01:05:51.559Z,15.56
2022-09-26T01:08:25.303Z,15.14
2022-09-26T01:10:53.508Z,14.78
2022-09-26T01:13:22.084Z,14.47
2022-09-26T01:15:49.894Z,14.20
2022-09-26T01:18:18.379Z,14.17
2022-09-26T01:21:13.233Z,15.19
2022-09-26T01:24:12.891Z,16.40
2022-09-26T01:27:16.376Z,16.73
2022-09-26T01:30:09.050Z,15.86
2022-09-26T01:32:55.680Z,15.12
2022-09-26T01:35:43.403Z,14.67
2022-09-26T01:38:27.248Z,14.30
2022-09-26T01:41:10.149Z,13.97
2022-09-26T01:43:51.296Z,13.69
2022-09-26T01:46:41.394Z,13.83
2022-09-26T01:49:13.652Z,15.24
2022-09-26T01:51:52.436Z,16.21
2022-09-26T01:54:25.166Z,16.56
2022-09-26T01:56:55.857Z,15.91
2022-09-26T01:59:33.088Z,15.24
2022-09-26T02:02:19.457Z,14.73
2022-09-26T02:04:52.777Z,14.34
2022-09-26T02:07:28.892Z,14.36
2022-09-26T02:10:02.682Z,15.58
2022-09-26T02:12:36.745Z,16.66
2022-09-26T02:15:08.138Z,17.09
2022-09-26T02:17:40.784Z,16.44
2022-09-26T02:20:16.952Z,15.70
2022-09-26T02:22:46.180Z,15.15
2022-09-26T02:25:16.650Z,14.78
2022-09-26T02:27:44.580Z,14.75
2022-09-26T02:30:12.813Z,15.77
2022-09-26T02:32:40.612Z,16.61
2022-09-26T02:35:27.935Z,17.08
2022-09-26T02:37:57.036Z,17.21
2022-09-26T02:40:46.842Z,16.54
2022-09-26T02:43:27.584Z,15.78
2022-09-26T02:46:02.769Z,15.23
2022-09-26T02:49:21.891Z,14.84
2022-09-26T02:52:09.350Z,14.38
2022-09-26T02:54:46.492Z,14.42
2022-09-26T02:57:47.068Z,15.73
2022-09-26T03:00:23.912Z,16.94
2022-09-26T03:03:06.243Z,17.23
2022-09-26T03:05:34.925Z,16.48
2022-09-26T03:08:18.201Z,15.75
2022-09-26T03:10:47.294Z,15.17
2022-09-26T03:13:17.187Z,14.74
2022-09-26T03:15:49.348Z,14.60
2022-09-26T03:18:20.373Z,15.62
2022-09-26T03:20:48.610Z,16.70
2022-09-26T03:23:17.077Z,17.14
2022-09-26T03:25:45.488Z,16.50
2022-09-26T03:28:15.335Z,15.72
2022-09-26T03:30:43.573Z,15.16
2022-09-26T03:33:24.157Z,14.71
2022-09-26T03:35:52.363Z,14.39
2022-09-26T03:38:21.361Z,14.36
2022-09-26T03:40:54.567Z,15.44
2022-09-26T03:43:43.985Z,16.59
2022-09-26T03:46:22.284Z,17.16
2022-09-26T03:48:51.180Z,16.53
2022-09-26T03:51:21.060Z,15.76
2022-09-26T03:53:49.458Z,15.19
2022-09-26T03:56:20.588Z,14.76
2022-09-26T03:58:51.722Z,14.59
2022-09-26T04:01:22.020Z,15.35
2022-09-26T04:03:58.595Z,16.22
2022-09-26T04:06:28.715Z,16.90
2022-09-26T04:08:57.257Z,16.99
2022-09-26T04:11:25.707Z,16.28
2022-09-26T04:13:54.269Z,15.57
2022-09-26T04:16:29.535Z,15.02
2022-09-26T04:19:03.770Z,14.62
2022-09-26T04:21:34.340Z,14.59
2022-09-26T04:24:03.335Z,15.73
2022-09-26T04:26:31.946Z,16.84
2022-09-26T04:29:00.049Z,17.31
2022-09-26T04:31:57.093Z,16.49
2022-09-26T04:34:31.271Z,15.74
2022-09-26T04:37:01.260Z,15.21
2022-09-26T04:39:29.163Z,14.78
2022-09-26T04:41:58.494Z,14.42
2022-09-26T04:44:27.986Z,14.40
2022-09-26T04:46:55.998Z,15.60
2022-09-26T04:49:32.990Z,16.80
2022-09-26T04:52:02.825Z,17.22
2022-09-26T04:54:31.092Z,16.57
2022-09-26T04:57:05.675Z,15.82
2022-09-26T04:59:33.597Z,15.22
2022-09-26T05:02:08.200Z,14.77
2022-09-26T05:04:42.819Z,14.41
2022-09-26T05:07:11.294Z,14.12
2022-09-26T05:09:39.481Z,14.19
2022-09-26T05:12:13.609Z,15.57
2022-09-26T05:14:45.033Z,16.81
2022-09-26T05:17:12.897Z,17.13
2022-09-26T05:19:43.123Z,16.45
2022-09-26T05:22:37.227Z,15.61
2022-09-26T05:25:25.647Z,15.11
2022-09-26T05:27:53.741Z,14.68
2022-09-26T05:30:22.118Z,14.61
2022-09-26T05:32:50.161Z,15.61
2022-09-26T05:35:18.336Z,16.61
2022-09-26T05:37:47.533Z,17.02
2022-09-26T05:40:34.413Z,16.48
2022-09-26T05:43:09.541Z,15.75
2022-09-26T05:45:39.402Z,15.26
2022-09-26T05:48:10.130Z,14.90
2022-09-26T05:50:43.341Z,14.87
2022-09-26T05:53:13.789Z,15.95
2022-09-26T05:55:41.740Z,17.00
2022-09-26T05:58:23.966Z,17.44
2022-09-26T06:01:12.878Z,16.71
2022-09-26T06:03:45.763Z,16.07
2022-09-26T06:06:23.090Z,15.56
2022-09-26T06:08:55.622Z,15.15
2022-09-26T06:11:49.241Z,14.80
2022-09-26T06:14:17.764Z,14.86
2022-09-26T06:16:49.220Z,15.99
2022-09-26T06:19:20.683Z,17.14
2022-09-26T06:21:51.921Z,17.67
2022-09-26T06:24:21.240Z,17.04
2022-09-26T06:26:53.668Z,16.29
2022-09-26T06:29:22.819Z,15.75
2022-09-26T06:31:51.525Z,15.35
2022-09-26T06:34:53.865Z,14.99
2022-09-26T06:37:43.029Z,15.12
2022-09-26T06:40:11.658Z,16.26
2022-09-26T06:42:41.194Z,17.17
2022-09-26T06:45:20.815Z,17.52
2022-09-26T06:48:21.020Z,16.79
2022-09-26T06:51:02.719Z,16.06
2022-09-26T06:53:31.603Z,15.56
2022-09-26T06:56:01.391Z,15.43
2022-09-26T06:58:37.663Z,16.34
2022-09-26T07:01:08.363Z,17.29
2022-09-26T07:03:56.627Z,17.73
2022-09-26T07:06:38.298Z,17.22
2022-09-26T07:09:12.282Z,16.43
2022-09-26T07:12:16.687Z,15.74
2022-09-26T07:14:48.924Z,15.64
2022-09-26T07:17:29.255Z,16.64
2022-09-26T07:20:19.319Z,17.42
2022-09-26T07:23:08.811Z,18.03
2022-09-26T07:25:39.848Z,18.24
2022-09-26T07:28:12.194Z,17.63
2022-09-26T07:30:51.443Z,16.89
2022-09-26T07:33:58.303Z,16.26
2022-09-26T07:36:27.298Z,16.15
2022-09-26T07:38:56.313Z,17.06
2022-09-26T07:41:24.781Z,18.02
2022-09-26T07:44:53.033Z,18.84
2022-09-26T07:46:59.979Z,18.83
2022-09-26T07:49:46.678Z,17.96
2022-09-26T07:53:17.781Z,17.17
2022-09-26T07:56:05.897Z,16.64
2022-09-26T07:59:16.642Z,16.68
2022-09-26T08:08:05.923Z,18.85
2022-09-26T08:11:46.906Z,18.00
2022-09-26T08:14:40.876Z,17.20
2022-09-26T08:17:54.472Z,16.70
2022-09-26T08:20:22.617Z,16.41
2022-09-26T08:23:04.631Z,16.38
2022-09-26T08:26:13.553Z,17.54
2022-09-26T08:29:02.279Z,18.66
2022-09-26T08:31:41.231Z,19.09
2022-09-26T08:34:39.213Z,18.40
2022-09-26T08:37:41.663Z,17.44
2022-09-26T08:41:16.497Z,16.82
2022-09-26T08:44:54.054Z,16.81
2022-09-26T08:48:34.362Z,18.26
2022-09-26T08:51:42.695Z,18.87
2022-09-26T08:55:23.272Z,18.71
2022-09-26T08:58:29.118Z,17.64
2022-09-26T09:01:13.518Z,17.02
2022-09-26T09:04:53.778Z,16.50
2022-09-26T09:07:36.724Z,16.52
2022-09-26T09:10:56.502Z,17.72
2022-09-26T09:14:21.302Z,18.82
2022-09-26T09:18:34.383Z,19.40
2022-09-26T09:25:34.042Z,17.22
2022-09-26T09:28:14.276Z,17.06
2022-09-26T09:30:57.352Z,17.98
2022-09-26T09:33:53.401Z,18.66
2022-09-26T09:36:45.847Z,18.36
2022-09-26T09:39:36.711Z,17.42
2022-09-26T09:42:21.791Z,17.05
2022-09-26T09:45:28.625Z,17.93
2022-09-26T09:47:58.162Z,18.90
2022-09-26T09:50:40.342Z,19.43
2022-09-26T09:53:26.592Z,19.62
2022-09-26T09:56:28.365Z,18.76
2022-09-26T09:59:19.344Z,17.71
2022-09-26T10:02:12.457Z,16.93
2022-09-26T10:04:46.817Z,16.78
2022-09-26T10:07:14.968Z,17.78
2022-09-26T10:09:45.802Z,18.68
2022-09-26T10:12:53.423Z,19.36
2022-09-26T10:15:47.234Z,19.41
2022-09-26T10:18:53.258Z,18.47
2022-09-26T10:21:21.652Z,17.57
2022-09-26T10:23:50.491Z,17.26
2022-09-26T10:26:41.539Z,18.31
2022-09-26T10:29:24.202Z,19.13
2022-09-26T10:31:56.907Z,19.28
2022-09-26T10:34:29.847Z,18.48
2022-09-26T10:37:19.993Z,17.61
2022-09-26T10:40:14.382Z,17.21
2022-09-26T10:42:47.323Z,18.21
2022-09-26T10:45:18.009Z,18.97
2022-09-26T10:47:55.711Z,19.16
2022-09-26T10:50:51.537Z,18.28
2022-09-26T10:53:40.241Z,17.43
2022-09-26T10:56:12.024Z,16.90
2022-09-26T10:58:45.539Z,16.81
2022-09-26T11:01:20.955Z,17.82
2022-09-26T11:03:50.239Z,18.82
2022-09-26T11:06:32.178Z,19.48
2022-09-26T11:09:18.950Z,19.71
2022-09-26T11:12:26.816Z,19.04
2022-09-26T11:15:05.815Z,18.35
2022-09-26T11:18:00.150Z,17.89
2022-09-26T11:20:48.570Z,17.55
2022-09-26T11:23:34.533Z,17.72
2022-09-26T11:26:23.453Z,19.15
2022-09-26T11:29:06.605Z,20.36
2022-09-26T11:31:46.159Z,20.87
2022-09-26T11:34:33.339Z,20.35
2022-09-26T11:37:13.619Z,19.78
2022-09-26T11:39:45.266Z,19.30
2022-09-26T11:42:16.328Z,18.98
2022-09-26T11:44:48.879Z,18.84
2022-09-26T11:47:39.075Z,18.77
2022-09-26T11:50:41.525Z,18.57
2022-09-26T11:53:22.297Z,18.28
2022-09-26T11:56:16.016Z,18.03
2022-09-26T11:59:02.361Z,17.79
2022-09-26T12:01:38.229Z,17.94
2022-09-26T12:04:45.382Z,19.23
2022-09-26T12:07:38.011Z,20.03
2022-09-26T12:10:12.148Z,19.39
2022-09-26T12:12:48.281Z,18.86
2022-09-26T12:15:41.831Z,18.42
2022-09-26T12:18:28.363Z,18.05
2022-09-26T12:21:21.154Z,17.73
2022-09-26T12:23:57.415Z,17.47
2022-09-26T12:26:53.565Z,17.62
2022-09-26T12:29:28.471Z,19.07
2022-09-26T12:32:07.966Z,20.13
2022-09-26T12:34:41.787Z,20.34
2022-09-26T12:37:24.722Z,19.71
2022-09-26T12:39:55.482Z,19.14
2022-09-26T12:42:45.677Z,18.75
2022-09-26T12:45:28.569Z,18.34
2022-09-26T12:48:23.587Z,18.06
2022-09-26T12:51:16.241Z,17.80
2022-09-26T12:54:13.467Z,17.61
2022-09-26T12:56:52.763Z,17.91
2022-09-26T12:59:40.253Z,19.36
2022-09-26T13:02:27.974Z,20.18
2022-09-26T13:05:03.577Z,19.68
2022-09-26T13:07:42.162Z,19.12
2022-09-26T13:10:28.811Z,18.72
2022-09-26T13:13:24.795Z,18.40
2022-09-26T13:16:01.914Z,18.14
2022-09-26T13:18:37.615Z,17.94
2022-09-26T13:21:16.119Z,17.76
2022-09-26T13:23:53.538Z,17.66
2022-09-26T13:26:27.331Z,17.68
2022-09-26T13:29:23.716Z,18.76
2022-09-26T13:31:56.164Z,20.26
2022-09-26T13:34:29.999Z,20.27
2022-09-26T13:36:59.445Z,19.75
2022-09-26T13:39:53.753Z,19.21
2022-09-26T13:42:44.172Z,18.68
2022-09-26T13:45:26.499Z,18.22
2022-09-26T13:48:13.855Z,17.90
2022-09-26T13:50:46.384Z,17.65
2022-09-26T13:53:29.563Z,17.45
2022-09-26T13:56:34.997Z,17.25
2022-09-26T13:59:19.628Z,17.53
2022-09-26T14:02:18.793Z,19.03
2022-09-26T14:04:48.408Z,20.16
2022-09-26T14:07:56.058Z,19.91
2022-09-26T14:10:43.428Z,18.93
2022-09-26T14:13:11.185Z,18.26
2022-09-26T14:16:05.248Z,17.90
2022-09-26T14:18:34.740Z,17.62
2022-09-26T14:21:14.393Z,17.41
2022-09-26T14:23:47.174Z,17.19
2022-09-26T14:26:30.074Z,17.30
2022-09-26T14:29:27.463Z,18.61
2022-09-26T14:32:01.863Z,19.95
2022-09-26T14:34:53.289Z,20.57
2022-09-26T14:37:24.433Z,20.43
2022-09-26T14:40:10.506Z,20.26
2022-09-26T14:42:48.018Z,20.42
2022-09-26T14:45:41.425Z,20.43
2022-09-26T14:48:26.606Z,20.42
2022-09-26T14:51:19.661Z,20.58
2022-09-26T14:53:47.494Z,20.77
2022-09-26T14:56:30.651Z,21.05
2022-09-26T14:59:39.561Z,21.77
2022-09-26T15:02:19.115Z,22.26
2022-09-26T15:05:11.340Z,23.66
2022-09-26T15:07:45.819Z,25.50
2022-09-26T15:10:13.928Z,27.10
2022-09-26T15:12:45.334Z,28.50
2022-09-26T15:15:31.636Z,29.90
2022-09-26T15:18:24.638Z,31.35
2022-09-26T15:21:06.107Z,32.60
2022-09-26T15:23:34.959Z,33.71
2022-09-26T15:26:03.504Z,34.54
2022-09-26T15:28:34.692Z,35.14
2022-09-26T15:31:41.771Z,35.66
2022-09-26T15:34:23.068Z,36.14
2022-09-26T15:36:53.801Z,36.54
2022-09-26T15:39:31.155Z,36.95
2022-09-26T15:42:19.460Z,37.31
2022-09-26T15:44:58.960Z,37.64
2022-09-26T15:47:39.344Z,37.86
2022-09-26T15:50:10.434Z,38.04
2022-09-26T15:52:43.372Z,38.15
2022-09-26T15:55:17.691Z,38.24
2022-09-26T15:57:48.029Z,38.17
2022-09-26T16:00:16.788Z,38.04
2022-09-26T16:02:45.331Z,37.89
2022-09-26T16:05:14.598Z,37.71
2022-09-26T16:07:47.979Z,37.45
2022-09-26T16:10:21.645Z,37.16
2022-09-26T16:12:49.731Z,36.75
2022-09-26T16:15:28.547Z,36.22
2022-09-26T16:17:58.076Z,35.63
2022-09-26T16:20:33.232Z,34.74
2022-09-26T16:23:05.102Z,33.16
2022-09-26T16:25:53.008Z,31.38
2022-09-26T16:28:45.147Z,29.55
2022-09-26T16:31:20.378Z,27.87
2022-09-26T16:33:50.971Z,26.54
2022-09-26T16:36:35.953Z,25.40
2022-09-26T16:39:07.173Z,24.25
2022-09-26T16:42:00.537Z,23.29
2022-09-26T16:44:34.867Z,22.31
2022-09-26T16:47:19.390Z,21.53
2022-09-26T16:49:48.537Z,20.79
2022-09-26T16:52:28.713Z,20.19
2022-09-26T16:55:01.058Z,19.60
2022-09-26T16:57:35.391Z,19.10
2022-09-26T17:00:30.065Z,18.60
2022-09-26T17:02:58.723Z,18.07
2022-09-26T17:05:27.041Z,17.70
2022-09-26T17:07:55.255Z,17.36
2022-09-26T17:10:27.108Z,17.03
2022-09-26T17:12:56.417Z,16.73
2022-09-26T17:15:29.800Z,16.44
2022-09-26T17:18:05.813Z,16.16
2022-09-26T17:20:33.570Z,15.89
2022-09-26T17:23:16.866Z,15.68
2022-09-26T17:25:56.796Z,15.44
2022-09-26T17:28:36.710Z,15.25
2022-09-26T17:31:07.915Z,15.06
2022-09-26T17:33:40.563Z,14.90
2022-09-26T17:36:23.297Z,15.03
2022-09-26T17:38:51.148Z,16.38
2022-09-26T17:41:19.548Z,17.53
2022-09-26T17:43:58.635Z,18.14
2022-09-26T17:46:27.401Z,17.55
2022-09-26T17:48:56.282Z,16.89
2022-09-26T17:51:25.310Z,16.38
2022-09-26T17:53:54.748Z,16.01
2022-09-26T17:56:22.636Z,15.70
2022-09-26T17:58:52.013Z,15.42
2022-09-26T18:01:34.421Z,15.17
2022-09-26T18:04:06.438Z,14.94
2022-09-26T18:06:37.511Z,14.75
2022-09-26T18:09:09.975Z,14.56
2022-09-26T18:11:38.669Z,14.63
2022-09-26T18:14:07.967Z,15.77
2022-09-26T18:16:35.942Z,16.87
2022-09-26T18:19:16.696Z,17.29
2022-09-26T18:21:44.579Z,16.68
2022-09-26T18:24:19.396Z,16.05
2022-09-26T18:26:50.814Z,15.55
2022-09-26T18:29:27.927Z,15.20
2022-09-26T18:31:56.858Z,14.92
2022-09-26T18:34:25.987Z,14.67
2022-09-26T18:36:57.066Z,14.74
2022-09-26T18:39:25.272Z,16.05
2022-09-26T18:42:09.059Z,17.20
2022-09-26T18:44:37.305Z,17.61
2022-09-26T18:47:14.286Z,16.93
2022-09-26T18:49:47.366Z,16.19
2022-09-26T18:52:17.542Z,15.67
2022-09-26T18:54:45.988Z,15.29
2022-09-26T18:57:33.379Z,15.29
2022-09-26T19:00:02.750Z,16.67
2022-09-26T19:02:36.116Z,17.58
2022-09-26T19:05:05.959Z,17.92
2022-09-26T19:07:33.985Z,17.32
2022-09-26T19:10:03.293Z,16.62
2022-09-26T19:12:38.947Z,16.09
2022-09-26T19:15:15.052Z,15.68
2022-09-26T19:17:43.492Z,15.33
2022-09-26T19:20:11.331Z,15.04
2022-09-26T19:22:39.692Z,14.77
2022-09-26T19:25:10.082Z,14.79
2022-09-26T19:27:49.612Z,15.99
2022-09-26T19:30:21.082Z,17.12
2022-09-26T19:32:50.728Z,17.53
2022-09-26T19:35:44.955Z,16.90
2022-09-26T19:38:25.891Z,16.09
2022-09-26T19:40:55.494Z,15.55
2022-09-26T19:43:23.984Z,15.16
2022-09-26T19:45:53.846Z,14.85
2022-09-26T19:48:22.822Z,14.57
2022-09-26T19:50:52.572Z,14.62
2022-09-26T19:53:22.590Z,15.76
2022-09-26T19:55:50.646Z,16.84
2022-09-26T19:58:23.614Z,17.33
2022-09-26T20:00:53.657Z,16.73
2022-09-26T20:03:25.990Z,16.01
2022-09-26T20:05:53.958Z,15.45
2022-09-26T20:08:25.458Z,15.04
2022-09-26T20:10:55.214Z,14.70
2022-09-26T20:13:23.022Z,14.41
2022-09-26T20:15:51.063Z,14.15
2022-09-26T20:18:23.056Z,14.19
2022-09-26T20:20:53.971Z,15.33
2022-09-26T20:23:24.342Z,16.39
2022-09-26T20:25:54.594Z,16.86
2022-09-26T20:28:22.732Z,16.27
2022-09-26T20:30:58.454Z,15.58
2022-09-26T20:33:26.904Z,15.03
2022-09-26T20:36:03.967Z,14.64
2022-09-26T20:38:36.172Z,14.32
2022-09-26T20:41:13.176Z,14.36
2022-09-26T20:43:44.368Z,15.60
2022-09-26T20:46:12.653Z,16.73
2022-09-26T20:48:42.142Z,17.13
2022-09-26T20:51:21.239Z,16.49
2022-09-26T20:53:49.088Z,15.68
2022-09-26T20:56:21.287Z,15.11
2022-09-26T20:58:49.453Z,14.96
2022-09-26T21:01:19.589Z,15.99
2022-09-26T21:03:52.703Z,17.08
2022-09-26T21:06:23.450Z,17.55
2022-09-26T21:08:51.462Z,16.89
2022-09-26T21:11:21.008Z,16.10
2022-09-26T21:13:49.042Z,15.48
2022-09-26T21:16:19.663Z,15.03
2022-09-26T21:18:52.299Z,15.03
2022-09-26T21:21:26.928Z,16.15
2022-09-26T21:24:25.443Z,17.25
2022-09-26T21:26:53.372Z,17.54
2022-09-26T21:29:21.409Z,16.83
2022-09-26T21:31:51.578Z,16.06
2022-09-26T21:34:20.432Z,15.45
2022-09-26T21:36:49.190Z,15.29
2022-09-26T21:39:18.785Z,16.31
2022-09-26T21:41:49.039Z,17.28
2022-09-26T21:44:38.470Z,17.70
2022-09-26T21:47:06.426Z,16.91
2022-09-26T21:49:34.608Z,16.15
2022-09-26T21:52:15.338Z,15.56
2022-09-26T21:54:44.761Z,15.39
2022-09-26T21:57:19.730Z,16.43
2022-09-26T21:59:49.415Z,17.42
2022-09-26T22:02:17.427Z,17.76
2022-09-26T22:04:45.263Z,17.05
2022-09-26T22:07:13.118Z,16.27
2022-09-26T22:09:40.969Z,15.68
2022-09-26T22:12:08.766Z,15.45
2022-09-26T22:14:36.566Z,16.37
2022-09-26T22:17:04.425Z,17.31
2022-09-26T22:19:33.511Z,17.68
2022-09-26T22:22:01.964Z,16.98
2022-09-26T22:24:30.299Z,16.11
2022-09-26T22:26:58.275Z,15.46
2022-09-26T22:29:26.487Z,15.30
2022-09-26T22:31:54.350Z,16.36
2022-09-26T22:34:26.200Z,17.35
2022-09-26T22:36:54.025Z,17.78
2022-09-26T22:39:21.819Z,17.12
2022-09-26T22:41:49.638Z,16.29
2022-09-26T22:44:17.468Z,15.62
2022-09-26T22:46:45.249Z,15.43
2022-09-26T22:49:13.166Z,16.47
2022-09-26T22:51:41.440Z,17.43
2022-09-26T22:54:09.267Z,17.71
2022-09-26T22:56:37.091Z,16.95
2022-09-26T22:59:05.013Z,16.11
2022-09-26T23:01:43.708Z,15.47
2022-09-26T23:04:11.880Z,15.32
2022-09-26T23:06:40.168Z,16.29
2022-09-26T23:09:08.219Z,17.10
2022-09-26T23:11:37.394Z,17.38
2022-09-26T23:14:06.041Z,16.67
2022-09-26T23:16:35.630Z,15.79
2022-09-26T23:19:03.873Z,15.33
2022-09-26T23:21:32.377Z,16.06
2022-09-26T23:24:01.238Z,16.92
2022-09-26T23:26:33.702Z,17.50
2022-09-26T23:29:01.765Z,17.63
2022-09-26T23:31:30.259Z,16.89
2022-09-26T23:33:58.836Z,16.12
2022-09-26T23:36:26.814Z,15.55
2022-09-26T23:38:57.191Z,15.36
2022-09-26T23:41:25.263Z,16.28
2022-09-26T23:43:53.221Z,17.15
2022-09-26T23:46:21.426Z,17.70
2022-09-26T23:48:50.946Z,17.69
2022-09-26T23:51:18.884Z,16.90
2022-09-26T23:53:49.135Z,16.18
2022-09-26T23:56:17.225Z,15.65
2022-09-26T23:58:49.070Z,15.45
